sensor_id;sensor_type;location;lat;lon;timestamp;pressure;altitude;pressure_sealevel;temperature;humidity
77118;BME280;66072;50.238;19.228;2022-12-18T00:00:04;99909.65;;;-5.27;87.00
77118;BME280;66072;50.238;19.228;2022-12-18T00:02:32;99916.15;;;-5.28;86.87
77118;BME280;66072;50.238;19.228;2022-12-18T00:05:00;99917.86;;;-5.26;86.86
77118;BME280;66072;50.238;19.228;2022-12-18T00:07:28;99922.42;;;-5.25;86.94
77118;BME280;66072;50.238;19.228;2022-12-18T00:09:55;99923.09;;;-5.20;86.89
77118;BME280;66072;50.238;19.228;2022-12-18T00:12:23;99925.84;;;-5.19;86.65
77118;BME280;66072;50.238;19.228;2022-12-18T00:14:51;99928.64;;;-5.20;86.51
77118;BME280;66072;50.238;19.228;2022-12-18T00:17:18;99933.83;;;-5.19;86.55
77118;BME280;66072;50.238;19.228;2022-12-18T00:19:46;99934.13;;;-5.20;86.54
77118;BME280;66072;50.238;19.228;2022-12-18T00:22:14;99935.96;;;-5.20;86.60
77118;BME280;66072;50.238;19.228;2022-12-18T00:24:43;99938.17;;;-5.19;86.57
77118;BME280;66072;50.238;19.228;2022-12-18T00:27:10;99942.22;;;-5.18;86.62
77118;BME280;66072;50.238;19.228;2022-12-18T00:29:38;99936.23;;;-5.17;86.29
77118;BME280;66072;50.238;19.228;2022-12-18T00:32:05;99939.77;;;-5.16;85.83
77118;BME280;66072;50.238;19.228;2022-12-18T00:34:33;99946.31;;;-5.16;85.81
77118;BME280;66072;50.238;19.228;2022-12-18T00:37:00;99944.46;;;-5.16;86.03
77118;BME280;66072;50.238;19.228;2022-12-18T00:39:29;99944.06;;;-5.17;86.04
77118;BME280;66072;50.238;19.228;2022-12-18T00:41:56;99943.91;;;-5.17;86.15
77118;BME280;66072;50.238;19.228;2022-12-18T00:44:24;99946.39;;;-5.18;86.06
77118;BME280;66072;50.238;19.228;2022-12-18T00:46:51;99948.35;;;-5.19;86.27
77118;BME280;66072;50.238;19.228;2022-12-18T00:49:19;99950.03;;;-5.18;86.33
77118;BME280;66072;50.238;19.228;2022-12-18T00:51:48;99956.10;;;-5.16;86.40
77118;BME280;66072;50.238;19.228;2022-12-18T00:54:16;99959.20;;;-5.14;86.26
77118;BME280;66072;50.238;19.228;2022-12-18T00:56:44;99962.44;;;-5.12;86.34
77118;BME280;66072;50.238;19.228;2022-12-18T00:59:17;99966.74;;;-5.13;86.06
77118;BME280;66072;50.238;19.228;2022-12-18T01:01:46;99968.59;;;-5.13;86.25
77118;BME280;66072;50.238;19.228;2022-12-18T01:04:15;99972.86;;;-5.15;86.21
77118;BME280;66072;50.238;19.228;2022-12-18T01:06:43;99976.13;;;-5.16;86.36
77118;BME280;66072;50.238;19.228;2022-12-18T01:09:11;99981.16;;;-5.16;86.30
77118;BME280;66072;50.238;19.228;2022-12-18T01:11:39;99982.15;;;-5.16;86.03
77118;BME280;66072;50.238;19.228;2022-12-18T01:14:07;99984.78;;;-5.17;86.16
77118;BME280;66072;50.238;19.228;2022-12-18T01:16:34;99986.96;;;-5.16;86.11
77118;BME280;66072;50.238;19.228;2022-12-18T01:19:02;99990.61;;;-5.17;86.19
77118;BME280;66072;50.238;19.228;2022-12-18T01:21:30;99988.59;;;-5.17;86.18
77118;BME280;66072;50.238;19.228;2022-12-18T01:23:58;99995.30;;;-5.16;86.25
77118;BME280;66072;50.238;19.228;2022-12-18T01:26:26;99997.01;;;-5.16;86.24
77118;BME280;66072;50.238;19.228;2022-12-18T01:28:55;99996.70;;;-5.15;86.36
77118;BME280;66072;50.238;19.228;2022-12-18T01:31:26;99998.42;;;-5.14;86.30
77118;BME280;66072;50.238;19.228;2022-12-18T01:33:55;99999.41;;;-5.14;86.11
77118;BME280;66072;50.238;19.228;2022-12-18T01:36:26;100000.08;;;-5.14;86.37
77118;BME280;66072;50.238;19.228;2022-12-18T01:38:55;99994.89;;;-5.15;86.37
77118;BME280;66072;50.238;19.228;2022-12-18T01:41:25;99993.20;;;-5.15;86.45
77118;BME280;66072;50.238;19.228;2022-12-18T01:43:57;99993.81;;;-5.16;86.33
77118;BME280;66072;50.238;19.228;2022-12-18T01:46:26;99994.59;;;-5.17;86.49
77118;BME280;66072;50.238;19.228;2022-12-18T01:49:00;99996.06;;;-5.18;86.42
77118;BME280;66072;50.238;19.228;2022-12-18T01:51:29;100000.09;;;-5.17;86.47
77118;BME280;66072;50.238;19.228;2022-12-18T01:53:58;100002.94;;;-5.17;86.26
77118;BME280;66072;50.238;19.228;2022-12-18T01:56:26;100003.63;;;-5.16;86.22
77118;BME280;66072;50.238;19.228;2022-12-18T01:59:03;100004.89;;;-5.15;86.03
77118;BME280;66072;50.238;19.228;2022-12-18T02:01:34;100008.21;;;-5.15;86.23
77118;BME280;66072;50.238;19.228;2022-12-18T02:04:23;100011.71;;;-5.15;86.33
77118;BME280;66072;50.238;19.228;2022-12-18T02:06:56;100014.80;;;-5.17;86.19
77118;BME280;66072;50.238;19.228;2022-12-18T02:09:35;100020.75;;;-5.18;86.32
77118;BME280;66072;50.238;19.228;2022-12-18T02:12:11;100031.21;;;-5.19;86.45
77118;BME280;66072;50.238;19.228;2022-12-18T02:14:50;100036.23;;;-5.18;86.44
77118;BME280;66072;50.238;19.228;2022-12-18T02:17:30;100044.64;;;-5.17;86.39
77118;BME280;66072;50.238;19.228;2022-12-18T02:22:55;100054.77;;;-5.15;86.53
77118;BME280;66072;50.238;19.228;2022-12-18T02:28:01;100057.29;;;-5.14;86.47
77118;BME280;66072;50.238;19.228;2022-12-18T02:30:34;100060.98;;;-5.14;86.30
77118;BME280;66072;50.238;19.228;2022-12-18T02:33:06;100065.50;;;-5.12;86.30
77118;BME280;66072;50.238;19.228;2022-12-18T02:35:36;100067.63;;;-5.14;86.40
77118;BME280;66072;50.238;19.228;2022-12-18T02:38:05;100065.57;;;-5.15;86.40
77118;BME280;66072;50.238;19.228;2022-12-18T02:40:34;100067.16;;;-5.17;86.36
77118;BME280;66072;50.238;19.228;2022-12-18T02:43:11;100065.14;;;-5.17;86.34
77118;BME280;66072;50.238;19.228;2022-12-18T02:45:52;100065.30;;;-5.13;86.31
77118;BME280;66072;50.238;19.228;2022-12-18T02:48:24;100071.50;;;-5.09;86.30
77118;BME280;66072;50.238;19.228;2022-12-18T02:51:08;100077.93;;;-5.10;86.29
77118;BME280;66072;50.238;19.228;2022-12-18T02:53:55;100086.39;;;-5.12;86.38
77118;BME280;66072;50.238;19.228;2022-12-18T02:56:33;100088.50;;;-5.13;86.36
77118;BME280;66072;50.238;19.228;2022-12-18T02:59:13;100088.27;;;-5.15;86.34
77118;BME280;66072;50.238;19.228;2022-12-18T03:01:57;100095.02;;;-5.17;86.37
77118;BME280;66072;50.238;19.228;2022-12-18T03:04:28;100095.91;;;-5.19;86.52
77118;BME280;66072;50.238;19.228;2022-12-18T03:07:02;100097.92;;;-5.23;86.74
77118;BME280;66072;50.238;19.228;2022-12-18T03:09:36;100104.20;;;-5.24;86.75
77118;BME280;66072;50.238;19.228;2022-12-18T03:12:32;100112.23;;;-5.20;86.69
77118;BME280;66072;50.238;19.228;2022-12-18T03:15:19;100115.77;;;-5.15;86.44
77118;BME280;66072;50.238;19.228;2022-12-18T03:17:52;100117.77;;;-5.11;86.61
77118;BME280;66072;50.238;19.228;2022-12-18T03:20:23;100118.30;;;-5.10;86.62
77118;BME280;66072;50.238;19.228;2022-12-18T03:22:59;100113.91;;;-5.11;86.62
77118;BME280;66072;50.238;19.228;2022-12-18T03:25:30;100110.71;;;-5.12;86.70
77118;BME280;66072;50.238;19.228;2022-12-18T03:28:00;100108.60;;;-5.15;86.81
77118;BME280;66072;50.238;19.228;2022-12-18T03:30:30;100106.82;;;-5.18;86.83
77118;BME280;66072;50.238;19.228;2022-12-18T03:33:07;100110.52;;;-5.21;86.81
77118;BME280;66072;50.238;19.228;2022-12-18T03:35:39;100110.13;;;-5.22;86.84
77118;BME280;66072;50.238;19.228;2022-12-18T03:38:10;100114.33;;;-5.18;86.82
77118;BME280;66072;50.238;19.228;2022-12-18T03:46:11;100120.42;;;-5.15;86.89
77118;BME280;66072;50.238;19.228;2022-12-18T03:48:51;100127.13;;;-5.19;86.98
77118;BME280;66072;50.238;19.228;2022-12-18T03:51:26;100128.97;;;-5.22;86.87
77118;BME280;66072;50.238;19.228;2022-12-18T03:53:58;100130.52;;;-5.25;86.98
77118;BME280;66072;50.238;19.228;2022-12-18T03:56:30;100131.27;;;-5.27;87.00
77118;BME280;66072;50.238;19.228;2022-12-18T03:59:00;100134.83;;;-5.26;87.03
77118;BME280;66072;50.238;19.228;2022-12-18T04:01:35;100139.35;;;-5.25;87.04
77118;BME280;66072;50.238;19.228;2022-12-18T04:04:05;100144.84;;;-5.21;87.06
77118;BME280;66072;50.238;19.228;2022-12-18T04:06:34;100147.65;;;-5.18;86.96
77118;BME280;66072;50.238;19.228;2022-12-18T04:09:04;100150.33;;;-5.18;86.94
77118;BME280;66072;50.238;19.228;2022-12-18T04:11:33;100153.98;;;-5.18;87.18
77118;BME280;66072;50.238;19.228;2022-12-18T04:14:00;100151.36;;;-5.21;87.14
77118;BME280;66072;50.238;19.228;2022-12-18T04:16:33;100151.41;;;-5.24;87.18
77118;BME280;66072;50.238;19.228;2022-12-18T04:19:01;100153.23;;;-5.24;87.11
77118;BME280;66072;50.238;19.228;2022-12-18T04:21:29;100156.04;;;-5.25;87.25
77118;BME280;66072;50.238;19.228;2022-12-18T04:23:57;100159.39;;;-5.21;87.22
77118;BME280;66072;50.238;19.228;2022-12-18T04:26:25;100162.89;;;-5.17;87.25
77118;BME280;66072;50.238;19.228;2022-12-18T04:28:52;100165.67;;;-5.15;87.31
77118;BME280;66072;50.238;19.228;2022-12-18T04:31:20;100166.48;;;-5.15;87.15
77118;BME280;66072;50.238;19.228;2022-12-18T04:33:48;100172.26;;;-5.16;87.41
77118;BME280;66072;50.238;19.228;2022-12-18T04:36:16;100174.83;;;-5.18;87.31
77118;BME280;66072;50.238;19.228;2022-12-18T04:38:43;100178.38;;;-5.21;87.36
77118;BME280;66072;50.238;19.228;2022-12-18T04:41:11;100182.10;;;-5.24;87.35
77118;BME280;66072;50.238;19.228;2022-12-18T04:43:39;100189.05;;;-5.22;87.32
77118;BME280;66072;50.238;19.228;2022-12-18T04:46:08;100195.66;;;-5.19;87.26
77118;BME280;66072;50.238;19.228;2022-12-18T04:48:36;100200.27;;;-5.16;87.30
77118;BME280;66072;50.238;19.228;2022-12-18T04:51:05;100197.59;;;-5.16;87.49
77118;BME280;66072;50.238;19.228;2022-12-18T04:53:33;100207.09;;;-5.17;87.56
77118;BME280;66072;50.238;19.228;2022-12-18T04:56:06;100202.54;;;-5.18;87.58
77118;BME280;66072;50.238;19.228;2022-12-18T04:58:34;100204.98;;;-5.20;87.59
77118;BME280;66072;50.238;19.228;2022-12-18T05:01:03;100207.06;;;-5.21;87.43
77118;BME280;66072;50.238;19.228;2022-12-18T05:03:31;100209.83;;;-5.23;87.52
77118;BME280;66072;50.238;19.228;2022-12-18T05:05:59;100214.96;;;-5.20;87.55
77118;BME280;66072;50.238;19.228;2022-12-18T05:08:26;100215.84;;;-5.15;87.46
77118;BME280;66072;50.238;19.228;2022-12-18T05:11:08;100221.31;;;-5.12;87.54
77118;BME280;66072;50.238;19.228;2022-12-18T05:13:37;100219.13;;;-5.12;87.53
77118;BME280;66072;50.238;19.228;2022-12-18T05:16:07;100219.58;;;-5.14;87.66
77118;BME280;66072;50.238;19.228;2022-12-18T05:18:35;100227.06;;;-5.14;87.57
77118;BME280;66072;50.238;19.228;2022-12-18T05:21:04;100228.54;;;-5.18;87.63
77118;BME280;66072;50.238;19.228;2022-12-18T05:23:31;100230.80;;;-5.20;87.49
77118;BME280;66072;50.238;19.228;2022-12-18T05:26:01;100235.88;;;-5.18;87.72
77118;BME280;66072;50.238;19.228;2022-12-18T05:28:31;100240.90;;;-5.18;87.56
77118;BME280;66072;50.238;19.228;2022-12-18T05:31:01;100240.95;;;-5.21;87.59
77118;BME280;66072;50.238;19.228;2022-12-18T05:33:32;100238.81;;;-5.23;87.73
77118;BME280;66072;50.238;19.228;2022-12-18T05:36:01;100241.73;;;-5.25;87.64
77118;BME280;66072;50.238;19.228;2022-12-18T05:38:31;100244.00;;;-5.26;87.74
77118;BME280;66072;50.238;19.228;2022-12-18T05:40:59;100249.26;;;-5.29;87.91
77118;BME280;66072;50.238;19.228;2022-12-18T05:43:28;100247.90;;;-5.33;87.88
77118;BME280;66072;50.238;19.228;2022-12-18T05:45:56;100247.89;;;-5.33;87.85
77118;BME280;66072;50.238;19.228;2022-12-18T05:48:24;100247.01;;;-5.33;87.99
77118;BME280;66072;50.238;19.228;2022-12-18T05:50:51;100248.83;;;-5.34;87.96
77118;BME280;66072;50.238;19.228;2022-12-18T05:53:20;100252.00;;;-5.30;87.90
77118;BME280;66072;50.238;19.228;2022-12-18T05:55:47;100255.13;;;-5.28;87.94
77118;BME280;66072;50.238;19.228;2022-12-18T05:58:15;100255.55;;;-5.29;87.87
77118;BME280;66072;50.238;19.228;2022-12-18T06:00:45;100255.75;;;-5.33;87.94
77118;BME280;66072;50.238;19.228;2022-12-18T06:03:13;100257.51;;;-5.34;88.02
77118;BME280;66072;50.238;19.228;2022-12-18T06:05:43;100260.21;;;-5.36;87.96
77118;BME280;66072;50.238;19.228;2022-12-18T06:08:12;100262.02;;;-5.41;88.15
77118;BME280;66072;50.238;19.228;2022-12-18T06:10:41;100264.78;;;-5.43;87.98
77118;BME280;66072;50.238;19.228;2022-12-18T06:13:09;100268.88;;;-5.41;87.83
77118;BME280;66072;50.238;19.228;2022-12-18T06:15:37;100267.86;;;-5.41;87.94
77118;BME280;66072;50.238;19.228;2022-12-18T06:18:04;100270.56;;;-5.44;87.88
77118;BME280;66072;50.238;19.228;2022-12-18T06:20:32;100272.20;;;-5.48;87.94
77118;BME280;66072;50.238;19.228;2022-12-18T06:23:00;100275.27;;;-5.50;88.05
77118;BME280;66072;50.238;19.228;2022-12-18T06:25:28;100274.47;;;-5.53;88.02
77118;BME280;66072;50.238;19.228;2022-12-18T06:27:56;100275.95;;;-5.57;88.10
77118;BME280;66072;50.238;19.228;2022-12-18T06:30:24;100281.70;;;-5.62;88.23
77118;BME280;66072;50.238;19.228;2022-12-18T06:32:52;100286.69;;;-5.66;88.14
77118;BME280;66072;50.238;19.228;2022-12-18T06:35:23;100295.89;;;-5.69;88.31
77118;BME280;66072;50.238;19.228;2022-12-18T06:37:51;100298.02;;;-5.70;88.36
77118;BME280;66072;50.238;19.228;2022-12-18T06:40:19;100298.06;;;-5.69;88.30
77118;BME280;66072;50.238;19.228;2022-12-18T06:42:47;100305.45;;;-5.67;88.11
77118;BME280;66072;50.238;19.228;2022-12-18T06:45:15;100310.88;;;-5.69;87.97
77118;BME280;66072;50.238;19.228;2022-12-18T06:47:43;100311.80;;;-5.71;88.12
77118;BME280;66072;50.238;19.228;2022-12-18T06:50:11;100313.54;;;-5.72;88.05
77118;BME280;66072;50.238;19.228;2022-12-18T06:52:39;100317.27;;;-5.75;88.20
77118;BME280;66072;50.238;19.228;2022-12-18T06:55:07;100320.48;;;-5.77;88.09
77118;BME280;66072;50.238;19.228;2022-12-18T06:57:35;100325.58;;;-5.82;88.08
77118;BME280;66072;50.238;19.228;2022-12-18T07:00:05;100326.38;;;-5.86;88.32
77118;BME280;66072;50.238;19.228;2022-12-18T07:02:33;100332.09;;;-5.88;88.29
77118;BME280;66072;50.238;19.228;2022-12-18T07:05:01;100334.76;;;-5.88;88.29
77118;BME280;66072;50.238;19.228;2022-12-18T07:07:36;100342.17;;;-5.83;88.00
77118;BME280;66072;50.238;19.228;2022-12-18T07:10:05;100343.54;;;-5.79;88.07
77118;BME280;66072;50.238;19.228;2022-12-18T07:12:32;100346.55;;;-5.75;87.82
77118;BME280;66072;50.238;19.228;2022-12-18T07:15:00;100347.49;;;-5.73;87.82
77118;BME280;66072;50.238;19.228;2022-12-18T07:17:28;100352.34;;;-5.70;87.85
77118;BME280;66072;50.238;19.228;2022-12-18T07:19:56;100360.67;;;-5.66;87.79
77118;BME280;66072;50.238;19.228;2022-12-18T07:22:27;100359.07;;;-5.65;87.83
77118;BME280;66072;50.238;19.228;2022-12-18T07:24:55;100361.83;;;-5.63;87.73
77118;BME280;66072;50.238;19.228;2022-12-18T07:27:23;100364.52;;;-5.62;87.69
77118;BME280;66072;50.238;19.228;2022-12-18T07:29:51;100370.55;;;-5.62;87.33
77118;BME280;66072;50.238;19.228;2022-12-18T07:32:18;100380.74;;;-5.58;87.24
77118;BME280;66072;50.238;19.228;2022-12-18T07:34:46;100384.31;;;-5.56;87.28
77118;BME280;66072;50.238;19.228;2022-12-18T07:37:14;100385.23;;;-5.54;87.19
77118;BME280;66072;50.238;19.228;2022-12-18T07:39:41;100387.02;;;-5.49;87.07
77118;BME280;66072;50.238;19.228;2022-12-18T07:42:09;100388.90;;;-5.45;87.05
77118;BME280;66072;50.238;19.228;2022-12-18T07:44:37;100391.09;;;-5.33;86.92
77118;BME280;66072;50.238;19.228;2022-12-18T07:47:05;100389.71;;;-5.20;86.80
77118;BME280;66072;50.238;19.228;2022-12-18T07:49:38;100388.58;;;-5.06;86.63
77118;BME280;66072;50.238;19.228;2022-12-18T07:52:06;100381.30;;;-4.90;86.52
77118;BME280;66072;50.238;19.228;2022-12-18T07:54:34;100384.56;;;-4.73;86.28
77118;BME280;66072;50.238;19.228;2022-12-18T07:57:02;100386.94;;;-4.58;86.03
77118;BME280;66072;50.238;19.228;2022-12-18T07:59:39;100393.01;;;-4.38;85.98
77118;BME280;66072;50.238;19.228;2022-12-18T08:02:07;100388.61;;;-4.23;85.51
77118;BME280;66072;50.238;19.228;2022-12-18T08:04:35;100386.65;;;-4.11;85.04
77118;BME280;66072;50.238;19.228;2022-12-18T08:07:02;100387.18;;;-4.03;84.94
77118;BME280;66072;50.238;19.228;2022-12-18T08:09:31;100389.77;;;-3.93;84.66
77118;BME280;66072;50.238;19.228;2022-12-18T08:11:58;100390.95;;;-3.81;84.15
77118;BME280;66072;50.238;19.228;2022-12-18T08:14:26;100389.80;;;-3.69;84.05
77118;BME280;66072;50.238;19.228;2022-12-18T08:16:54;100392.64;;;-3.53;83.82
77118;BME280;66072;50.238;19.228;2022-12-18T08:19:22;100392.90;;;-3.38;83.66
77118;BME280;66072;50.238;19.228;2022-12-18T08:21:49;100396.59;;;-3.21;83.22
77118;BME280;66072;50.238;19.228;2022-12-18T08:24:17;100394.95;;;-3.11;82.56
77118;BME280;66072;50.238;19.228;2022-12-18T08:26:45;100396.92;;;-3.08;82.18
77118;BME280;66072;50.238;19.228;2022-12-18T08:29:33;100393.95;;;-3.07;81.86
77118;BME280;66072;50.238;19.228;2022-12-18T08:32:01;100398.66;;;-3.03;81.97
77118;BME280;66072;50.238;19.228;2022-12-18T08:34:29;100396.23;;;-2.96;81.80
77118;BME280;66072;50.238;19.228;2022-12-18T08:36:57;100391.48;;;-2.89;81.46
77118;BME280;66072;50.238;19.228;2022-12-18T08:39:25;100395.00;;;-2.80;81.42
77118;BME280;66072;50.238;19.228;2022-12-18T08:41:53;100404.15;;;-2.74;81.07
77118;BME280;66072;50.238;19.228;2022-12-18T08:44:20;100410.32;;;-2.69;80.64
77118;BME280;66072;50.238;19.228;2022-12-18T08:46:48;100416.48;;;-2.65;80.46
77118;BME280;66072;50.238;19.228;2022-12-18T08:49:16;100423.88;;;-2.61;80.22
77118;BME280;66072;50.238;19.228;2022-12-18T08:51:44;100426.25;;;-2.55;79.91
77118;BME280;66072;50.238;19.228;2022-12-18T08:54:12;100431.45;;;-2.51;79.65
77118;BME280;66072;50.238;19.228;2022-12-18T08:56:40;100431.06;;;-2.43;79.48
77118;BME280;66072;50.238;19.228;2022-12-18T08:59:08;100431.80;;;-2.36;78.96
77118;BME280;66072;50.238;19.228;2022-12-18T09:01:44;100436.13;;;-2.33;78.69
77118;BME280;66072;50.238;19.228;2022-12-18T09:04:12;100442.46;;;-2.34;78.62
77118;BME280;66072;50.238;19.228;2022-12-18T09:06:40;100442.39;;;-2.36;78.36
77118;BME280;66072;50.238;19.228;2022-12-18T09:09:09;100444.79;;;-2.30;78.58
77118;BME280;66072;50.238;19.228;2022-12-18T09:11:37;100445.42;;;-2.18;78.33
77118;BME280;66072;50.238;19.228;2022-12-18T09:14:04;100445.63;;;-2.07;78.03
77118;BME280;66072;50.238;19.228;2022-12-18T09:16:33;100449.85;;;-1.97;77.82
77118;BME280;66072;50.238;19.228;2022-12-18T09:19:03;100453.34;;;-1.88;77.29
77118;BME280;66072;50.238;19.228;2022-12-18T09:21:33;100450.31;;;-1.94;76.60
77118;BME280;66072;50.238;19.228;2022-12-18T09:24:04;100452.25;;;-2.00;76.45
77118;BME280;66072;50.238;19.228;2022-12-18T09:26:35;100458.35;;;-2.08;76.51
77118;BME280;66072;50.238;19.228;2022-12-18T09:29:03;100458.24;;;-2.15;76.73
77118;BME280;66072;50.238;19.228;2022-12-18T09:31:31;100458.30;;;-2.09;77.28
77118;BME280;66072;50.238;19.228;2022-12-18T09:33:59;100456.48;;;-2.08;76.32
77118;BME280;66072;50.238;19.228;2022-12-18T09:36:26;100458.06;;;-2.07;76.45
77118;BME280;66072;50.238;19.228;2022-12-18T09:38:54;100460.41;;;-1.92;76.91
77118;BME280;66072;50.238;19.228;2022-12-18T09:41:44;100459.91;;;-1.78;76.20
77118;BME280;66072;50.238;19.228;2022-12-18T09:47:15;100466.04;;;-1.56;76.21
77118;BME280;66072;50.238;19.228;2022-12-18T09:49:47;100467.51;;;-1.57;75.20
77118;BME280;66072;50.238;19.228;2022-12-18T09:52:39;100466.82;;;-1.68;75.35
77118;BME280;66072;50.238;19.228;2022-12-18T09:55:24;100467.98;;;-1.64;75.45
77118;BME280;66072;50.238;19.228;2022-12-18T10:00:37;100464.43;;;-1.69;74.22
77118;BME280;66072;50.238;19.228;2022-12-18T10:03:15;100469.61;;;-1.65;74.99
77118;BME280;66072;50.238;19.228;2022-12-18T10:06:04;100473.25;;;-1.56;74.98
77118;BME280;66072;50.238;19.228;2022-12-18T10:14:30;100464.20;;;-1.22;74.36
77118;BME280;66072;50.238;19.228;2022-12-18T10:28:14;100449.48;;;-0.73;73.66
77118;BME280;66072;50.238;19.228;2022-12-18T10:30:43;100452.91;;;-0.60;73.18
77118;BME280;66072;50.238;19.228;2022-12-18T10:33:13;100450.98;;;-0.50;72.74
77118;BME280;66072;50.238;19.228;2022-12-18T10:35:45;100448.55;;;-0.48;72.72
77118;BME280;66072;50.238;19.228;2022-12-18T10:40:52;100441.85;;;-0.42;72.00
77118;BME280;66072;50.238;19.228;2022-12-18T10:43:34;100439.73;;;-0.45;72.23
77118;BME280;66072;50.238;19.228;2022-12-18T10:48:56;100435.17;;;-0.40;71.55
77118;BME280;66072;50.238;19.228;2022-12-18T10:51:36;100438.20;;;-0.28;72.05
77118;BME280;66072;50.238;19.228;2022-12-18T10:56:43;100428.45;;;-0.23;71.59
77118;BME280;66072;50.238;19.228;2022-12-18T10:59:15;100425.15;;;-0.20;71.78
77118;BME280;66072;50.238;19.228;2022-12-18T11:01:51;100426.16;;;-0.20;71.40
77118;BME280;66072;50.238;19.228;2022-12-18T11:04:22;100425.45;;;-0.21;71.47
77118;BME280;66072;50.238;19.228;2022-12-18T11:07:11;100425.55;;;-0.18;71.39
77118;BME280;66072;50.238;19.228;2022-12-18T11:09:40;100418.91;;;-0.21;71.07
77118;BME280;66072;50.238;19.228;2022-12-18T11:12:18;100416.90;;;-0.21;71.03
77118;BME280;66072;50.238;19.228;2022-12-18T11:14:49;100420.58;;;-0.15;71.33
77118;BME280;66072;50.238;19.228;2022-12-18T11:17:38;100415.73;;;-0.08;70.64
77118;BME280;66072;50.238;19.228;2022-12-18T11:20:40;100411.25;;;-0.00;70.65
77118;BME280;66072;50.238;19.228;2022-12-18T11:23:12;100404.36;;;0.13;69.77
77118;BME280;66072;50.238;19.228;2022-12-18T11:25:51;100405.55;;;0.13;68.71
77118;BME280;66072;50.238;19.228;2022-12-18T11:28:35;100404.81;;;0.23;69.36
77118;BME280;66072;50.238;19.228;2022-12-18T11:31:25;100405.19;;;0.57;68.59
77118;BME280;66072;50.238;19.228;2022-12-18T11:36:46;100407.48;;;1.18;66.62
77118;BME280;66072;50.238;19.228;2022-12-18T11:39:38;100411.45;;;1.30;65.19
77118;BME280;66072;50.238;19.228;2022-12-18T11:42:20;100412.90;;;1.27;63.78
77118;BME280;66072;50.238;19.228;2022-12-18T11:44:58;100417.94;;;1.11;61.51
77118;BME280;66072;50.238;19.228;2022-12-18T11:50:23;100426.80;;;0.53;62.80
77118;BME280;66072;50.238;19.228;2022-12-18T11:52:51;100422.88;;;0.25;62.61
77118;BME280;66072;50.238;19.228;2022-12-18T11:55:37;100424.19;;;-0.07;63.79
77118;BME280;66072;50.238;19.228;2022-12-18T12:00:55;100421.05;;;-0.69;64.67
77118;BME280;66072;50.238;19.228;2022-12-18T12:03:36;100422.64;;;-0.98;65.35
77118;BME280;66072;50.238;19.228;2022-12-18T12:09:12;100436.54;;;-1.36;66.19
77118;BME280;66072;50.238;19.228;2022-12-18T12:15:01;100433.33;;;-1.61;66.59
77118;BME280;66072;50.238;19.228;2022-12-18T12:18:06;100435.85;;;-1.71;66.87
77118;BME280;66072;50.238;19.228;2022-12-18T12:23:56;100434.77;;;-1.87;67.26
77118;BME280;66072;50.238;19.228;2022-12-18T12:26:35;100433.52;;;-1.99;67.17
77118;BME280;66072;50.238;19.228;2022-12-18T12:35:12;100439.30;;;-2.33;67.79
77118;BME280;66072;50.238;19.228;2022-12-18T12:37:50;100444.14;;;-2.48;68.18
77118;BME280;66072;50.238;19.228;2022-12-18T12:40:26;100448.70;;;-2.60;68.12
77118;BME280;66072;50.238;19.228;2022-12-18T12:43:38;100452.10;;;-2.71;68.78
77118;BME280;66072;50.238;19.228;2022-12-18T12:46:19;100452.24;;;-2.85;68.67
77118;BME280;66072;50.238;19.228;2022-12-18T12:48:55;100453.66;;;-2.96;68.57
77118;BME280;66072;50.238;19.228;2022-12-18T12:51:32;100450.39;;;-3.06;68.84
77118;BME280;66072;50.238;19.228;2022-12-18T12:54:02;100449.78;;;-3.13;69.11
77118;BME280;66072;50.238;19.228;2022-12-18T12:56:44;100453.66;;;-3.20;69.41
77118;BME280;66072;50.238;19.228;2022-12-18T12:59:24;100453.26;;;-3.26;69.58
77118;BME280;66072;50.238;19.228;2022-12-18T13:05:30;100458.74;;;-3.47;70.09
77118;BME280;66072;50.238;19.228;2022-12-18T13:08:09;100465.41;;;-3.64;70.70
77118;BME280;66072;50.238;19.228;2022-12-18T13:10:42;100463.34;;;-3.77;70.37
77118;BME280;66072;50.238;19.228;2022-12-18T13:13:14;100470.48;;;-3.93;70.81
77118;BME280;66072;50.238;19.228;2022-12-18T13:16:05;100467.36;;;-4.15;70.27
77118;BME280;66072;50.238;19.228;2022-12-18T13:18:34;100461.44;;;-4.43;71.07
77118;BME280;66072;50.238;19.228;2022-12-18T13:21:14;100468.52;;;-4.66;71.70
77118;BME280;66072;50.238;19.228;2022-12-18T13:23:46;100472.21;;;-4.87;70.90
77118;BME280;66072;50.238;19.228;2022-12-18T13:28:53;100484.89;;;-5.15;73.27
77118;BME280;66072;50.238;19.228;2022-12-18T13:34:23;100483.55;;;-5.42;73.01
77118;BME280;66072;50.238;19.228;2022-12-18T13:37:35;100481.52;;;-5.49;73.53
77118;BME280;66072;50.238;19.228;2022-12-18T13:43:23;100479.65;;;-5.53;73.96
77118;BME280;66072;50.238;19.228;2022-12-18T13:48:30;100481.16;;;-4.64;73.13
77118;BME280;66072;50.238;19.228;2022-12-18T13:53:30;100487.05;;;-3.38;72.00
77118;BME280;66072;50.238;19.228;2022-12-18T13:56:02;100495.02;;;-3.04;71.94
77118;BME280;66072;50.238;19.228;2022-12-18T13:58:30;100491.91;;;-3.06;70.88
77118;BME280;66072;50.238;19.228;2022-12-18T14:00:58;100488.40;;;-3.26;70.03
77118;BME280;66072;50.238;19.228;2022-12-18T14:03:28;100498.11;;;-3.50;70.11
77118;BME280;66072;50.238;19.228;2022-12-18T14:06:00;100501.66;;;-3.76;71.37
77118;BME280;66072;50.238;19.228;2022-12-18T14:08:39;100494.44;;;-4.15;71.07
77118;BME280;66072;50.238;19.228;2022-12-18T14:11:20;100497.71;;;-4.67;71.37
77118;BME280;66072;50.238;19.228;2022-12-18T14:13:50;100497.52;;;-5.16;71.52
77118;BME280;66072;50.238;19.228;2022-12-18T14:16:17;100492.83;;;-5.53;71.71
77118;BME280;66072;50.238;19.228;2022-12-18T14:18:53;100492.93;;;-5.90;71.48
77118;BME280;66072;50.238;19.228;2022-12-18T14:21:25;100491.76;;;-6.28;71.75
77118;BME280;66072;50.238;19.228;2022-12-18T14:24:18;100493.02;;;-6.67;73.12
77118;BME280;66072;50.238;19.228;2022-12-18T14:26:48;100490.91;;;-7.07;74.12
77118;BME280;66072;50.238;19.228;2022-12-18T14:29:23;100484.45;;;-7.39;74.65